Strona główna
METAR-TAF:

METAR-TAF

Lotnisko :

Defiance Memorial Airport

Defiance, Ohio, Stany Zjednoczone

Szerokość geograficzna: 41-20-11N, Długość geograficzna: 084-25-46W, wysokość: 215 m

Aktualna obserwacja pogody

Raport powstał 49 minut temu, godzina 17:53 UTC
Wiatr 9 kt od południowo-południowy zachód w porywach dochodzący do 20 kt
Temperatura 34°C
Wilgotność 53%
Ciśnienie 1012 hPa
Widzialność: 16.1 km
Mało chmury na wysokości 4200 ft

METAR: KDFI 201753Z AUTO 21009G20KT 10SM FEW042 34/23 A2989 RMK AO2 SLP113 T03390233 10339 20256 56008

czas: 14:42 (18:42 UTC)


TAF: brakujący

Obserwacja i prognoza pogody dla ponad 4000 lotnisk (raport METAR i TAF).

Dostępne stacje oznaczono żółtymi i czerwonymi punktami na mapie.

Najedź kursorem aby zobaczyć nazwę stacji.

Kliknij aby zobaczyć obserwacje i prognozy pogody.

Aby zmienić mapę: kliknij na zielony przycisk z czarnym krzyżykiem, aby powiększyć; na zielony przycisk z myślnikiem, aby pomniejszyć; na zielone strzałki, aby przejść do map sąsiednich.


METAR-TAF: